Terminal Aerodrome Forecast
Issued by NWS Brownsville, TX

Home | Current Version | Previous Version | Text Only | Print | Product List | Glossary On
Versions: 1 2 3 4 5 6 7 8 9 10 11 12 13
643
FTUS44 KBRO 092335
TAFBRO
TAF
KBRO 092335Z 1000/1024 VRB05KT P6SM SKC
     FM101700 17012KT P6SM SKC=

USA.gov is the U.S. government's official web portal to all federal, state and local government web resources and services.